Time;durP1;ratioP1;P1;durP2;ratioP2;P2;SDS_P1;SDS_P2;PMS_P1;PMS_P2;Temp;Humidity;BMP_temperature;BMP_pressure;BME280_temperature;BME280_humidity;BME280_pressure;Samples;Min_cycle;Max_cycle;Signal;HPM_P1;HPM_P2
2022/04/05 00:05:00;;;;;;;2.40;2.20;;;15.50;56.20;;;;;;10255116;29;20238;-86
2022/04/05 00:10:03;;;;;;;2.90;2.23;;;15.50;56.10;;;;;;10264140;28;20233;-85
2022/04/05 00:15:08;;;;;;;2.57;2.20;;;15.40;56.60;;;;;;10269516;28;20202;-86
2022/04/05 00:20:11;;;;;;;2.13;1.90;;;15.40;56.70;;;;;;10255442;29;20285;-86
2022/04/05 00:25:13;;;;;;;2.70;2.20;;;15.40;56.50;;;;;;10289161;28;20291;-86
2022/04/05 00:30:16;;;;;;;2.37;2.00;;;15.30;56.80;;;;;;10308035;28;20202;-86
2022/04/05 00:35:19;;;;;;;1.70;1.60;;;15.50;56.60;;;;;;10292487;28;20294;-86
2022/04/05 00:40:21;;;;;;;2.27;2.07;;;15.50;56.60;;;;;;10291581;28;20289;-86
2022/04/05 00:45:24;;;;;;;2.20;1.77;;;15.50;56.50;;;;;;10268926;28;20254;-86
2022/04/05 00:50:27;;;;;;;3.10;2.80;;;15.50;56.70;;;;;;10261193;28;20198;-86
2022/04/05 00:55:31;;;;;;;1.80;1.67;;;15.40;56.90;;;;;;10294881;28;20221;-86
2022/04/05 01:00:34;;;;;;;2.70;2.50;;;15.50;56.90;;;;;;10216121;29;20231;-86
2022/04/05 01:05:38;;;;;;;2.07;1.87;;;15.50;57.00;;;;;;10237341;28;20222;-86
2022/04/05 01:10:42;;;;;;;1.60;1.50;;;15.50;57.00;;;;;;10292998;28;20198;-86
2022/04/05 01:15:45;;;;;;;2.00;1.90;;;15.40;57.30;;;;;;10295643;28;20614;-86
2022/04/05 01:20:47;;;;;;;2.17;1.83;;;15.40;57.10;;;;;;10274126;28;20198;-86
2022/04/05 01:25:51;;;;;;;2.10;1.80;;;15.50;57.20;;;;;;10272226;28;20609;-86
2022/04/05 01:30:53;;;;;;;1.73;1.63;;;15.40;57.40;;;;;;10251540;29;20214;-86
2022/04/05 01:35:56;;;;;;;1.83;1.73;;;15.40;57.50;;;;;;10292372;28;20263;-86
2022/04/05 01:41:01;;;;;;;1.73;1.57;;;15.40;57.60;;;;;;10259379;28;20210;-85
2022/04/05 01:46:03;;;;;;;2.00;1.63;;;15.40;57.60;;;;;;10254848;28;20634;-86
2022/04/05 01:51:06;;;;;;;1.60;1.50;;;15.40;57.70;;;;;;10293701;28;20561;-86
2022/04/05 01:56:09;;;;;;;1.40;1.30;;;15.40;57.70;;;;;;10261167;28;20194;-86
2022/04/05 02:01:11;;;;;;;2.40;1.53;;;15.40;57.80;;;;;;10304281;28;20246;-86
2022/04/05 02:06:14;;;;;;;1.53;1.40;;;15.30;57.90;;;;;;10321466;28;20237;-86
2022/04/05 02:11:17;;;;;;;1.40;1.10;;;15.30;58.00;;;;;;10302690;28;20226;-86
2022/04/05 02:16:25;;;;;;;2.17;1.27;;;15.30;58.00;;;;;;10302411;28;20190;-86
2022/04/05 02:21:29;;;;;;;1.30;1.10;;;15.20;58.50;;;;;;10311351;28;20224;-86
2022/04/05 02:26:33;;;;;;;2.00;1.20;;;15.30;58.10;;;;;;10302410;28;20218;-86
2022/04/05 02:31:37;;;;;;;1.20;1.07;;;15.40;58.00;;;;;;10291844;28;20194;-86
2022/04/05 02:36:42;;;;;;;1.00;1.00;;;15.30;58.00;;;;;;10315975;28;20186;-86
2022/04/05 02:41:49;;;;;;;0.83;0.83;;;15.40;58.00;;;;;;10301294;28;20190;-86
2022/04/05 02:46:54;;;;;;;1.40;1.23;;;15.40;58.00;;;;;;10286392;28;20229;-86
2022/04/05 02:51:59;;;;;;;1.37;1.23;;;15.50;58.00;;;;;;10292220;28;20175;-86
2022/04/05 02:57:12;;;;;;;1.20;1.03;;;15.50;58.00;;;;;;10319623;28;20246;-86
2022/04/05 03:02:16;;;;;;;2.20;0.90;;;15.50;58.10;;;;;;10342147;28;20173;-86
2022/04/05 03:07:19;;;;;;;1.40;1.30;;;15.40;58.10;;;;;;10305876;28;20214;-86
2022/04/05 03:12:23;;;;;;;1.30;0.80;;;15.30;58.40;;;;;;10320850;28;20186;-86
2022/04/05 03:17:28;;;;;;;1.10;0.90;;;15.40;58.30;;;;;;10324206;28;20222;-86
2022/04/05 03:22:31;;;;;;;1.10;1.00;;;15.30;58.30;;;;;;10336065;28;20220;-86
2022/04/05 03:27:38;;;;;;;1.07;0.90;;;15.30;58.20;;;;;;10299367;28;20218;-87
2022/04/05 03:32:41;;;;;;;0.80;0.80;;;15.30;58.30;;;;;;10323010;28;20178;-87
2022/04/05 03:37:45;;;;;;;0.63;0.63;;;15.30;58.20;;;;;;10300146;28;20194;-86
2022/04/05 03:42:47;;;;;;;2.80;1.00;;;15.30;58.10;;;;;;10299610;28;20183;-86
2022/04/05 03:47:50;;;;;;;1.00;0.77;;;15.30;58.00;;;;;;10305641;28;20210;-86
2022/04/05 03:52:53;;;;;;;1.30;0.60;;;15.30;58.00;;;;;;10339591;28;20177;-86
2022/04/05 03:58:02;;;;;;;0.80;0.80;;;15.20;58.00;;;;;;10302175;28;20254;-86
2022/04/05 04:03:06;;;;;;;0.50;0.50;;;15.10;58.30;;;;;;10288849;28;20206;-86
2022/04/05 04:08:09;;;;;;;0.93;0.70;;;15.00;58.20;;;;;;10246752;28;20256;-86
2022/04/05 04:13:12;;;;;;;0.83;0.83;;;15.00;58.50;;;;;;10277393;28;20202;-86
2022/04/05 04:18:20;;;;;;;0.43;0.43;;;15.00;58.30;;;;;;10271443;28;20608;-86
2022/04/05 04:23:26;;;;;;;1.00;0.63;;;15.00;58.20;;;;;;10304662;28;20644;-86
2022/04/05 04:28:31;;;;;;;2.47;0.70;;;15.10;58.00;;;;;;10288177;28;20229;-86
2022/04/05 04:33:34;;;;;;;1.00;0.50;;;15.10;57.90;;;;;;10282981;28;20202;-86
2022/04/05 04:38:36;;;;;;;0.80;0.50;;;15.00;57.90;;;;;;10251899;28;20203;-86
2022/04/05 04:43:39;;;;;;;1.47;0.70;;;15.10;57.60;;;;;;10303133;28;20483;-86
2022/04/05 04:48:41;;;;;;;0.80;0.60;;;15.10;57.60;;;;;;10287530;28;20814;-86
2022/04/05 04:53:44;;;;;;;1.30;0.90;;;15.20;57.40;;;;;;10292820;28;20265;-86
2022/04/05 04:58:46;;;;;;;0.77;0.77;;;15.30;57.00;;;;;;10290753;28;20260;-86
2022/04/05 05:03:49;;;;;;;1.37;0.90;;;15.10;57.30;;;;;;10291658;28;20205;-86
2022/04/05 05:08:52;;;;;;;2.03;0.70;;;15.30;57.00;;;;;;10270238;28;20537;-86
2022/04/05 05:13:54;;;;;;;2.17;0.80;;;15.30;56.90;;;;;;10239683;28;20612;-86
2022/04/05 05:18:57;;;;;;;1.77;0.90;;;15.30;56.80;;;;;;10271496;28;20225;-86
2022/04/05 05:23:59;;;;;;;3.10;1.13;;;15.30;56.70;;;;;;10251714;28;20277;-86
2022/04/05 05:29:02;;;;;;;1.53;0.80;;;15.30;56.60;;;;;;10249605;28;20249;-86
2022/04/05 05:34:09;;;;;;;1.30;0.73;;;15.40;56.30;;;;;;10250116;28;20233;-86
2022/04/05 05:39:12;;;;;;;2.30;0.70;;;15.30;56.20;;;;;;10281327;28;20218;-86
2022/04/05 05:44:15;;;;;;;1.67;0.70;;;15.30;56.40;;;;;;10288231;28;20217;-86
2022/04/05 05:49:17;;;;;;;1.17;0.80;;;14.90;57.10;;;;;;10271532;28;20722;-86
2022/04/05 05:54:19;;;;;;;3.00;1.20;;;15.10;56.50;;;;;;10264027;28;20234;-86
2022/04/05 05:59:24;;;;;;;3.43;1.03;;;15.10;56.60;;;;;;10270663;28;20324;-87
2022/04/05 06:04:26;;;;;;;2.23;0.90;;;13.80;57.40;;;;;;10281299;28;20249;-86
2022/04/05 06:09:29;;;;;;;3.73;1.47;;;14.50;56.00;;;;;;10249244;28;20257;-86
2022/04/05 06:14:31;;;;;;;3.00;1.17;;;14.20;56.80;;;;;;10247744;28;20272;-86
2022/04/05 06:19:34;;;;;;;2.90;1.17;;;14.30;56.50;;;;;;10246256;28;20230;-86
2022/04/05 06:24:36;;;;;;;3.57;1.20;;;14.40;56.00;;;;;;10246961;29;20277;-86
2022/04/05 06:29:39;;;;;;;5.27;1.40;;;13.60;57.30;;;;;;10249278;28;20241;-86
2022/04/05 06:34:42;;;;;;;2.93;1.30;;;14.50;55.90;;;;;;10246592;28;20230;-86
2022/04/05 06:39:44;;;;;;;2.47;1.07;;;13.70;57.40;;;;;;10248905;28;20309;-86
2022/04/05 06:44:47;;;;;;;2.57;1.27;;;14.20;56.00;;;;;;10261758;28;20233;-86
2022/04/05 06:49:49;;;;;;;1.67;0.90;;;13.80;57.20;;;;;;10229315;28;20245;-86
2022/04/05 06:54:52;;;;;;;2.77;1.13;;;14.50;55.80;;;;;;10206994;29;20293;-87
2022/04/05 06:59:54;;;;;;;3.07;1.00;;;14.60;55.30;;;;;;10248548;28;20309;-86
2022/04/05 07:04:57;;;;;;;1.10;0.97;;;14.80;55.00;;;;;;10248218;29;20237;-87
2022/04/05 07:09:59;;;;;;;3.60;0.80;;;14.90;54.80;;;;;;10260105;28;20249;-87
2022/04/05 07:15:03;;;;;;;4.57;1.43;;;15.20;54.30;;;;;;10247902;28;20202;-88
2022/04/05 07:20:08;;;;;;;8.53;1.87;;;14.80;55.10;;;;;;10246466;28;20230;-87
2022/04/05 07:25:11;;;;;;;5.70;1.30;;;14.40;54.60;;;;;;10257305;28;20237;-89
2022/04/05 07:30:13;;;;;;;6.43;2.17;;;14.80;55.00;;;;;;10256216;28;20292;-88
2022/04/05 07:35:17;;;;;;;4.17;2.00;;;12.60;56.90;;;;;;10245728;29;20234;-89
2022/04/05 07:40:20;;;;;;;4.73;2.17;;;13.20;55.50;;;;;;10245939;28;20241;-89
2022/04/05 07:45:23;;;;;;;6.53;2.27;;;13.50;54.80;;;;;;10246802;28;20241;-90
2022/04/05 07:50:26;;;;;;;4.03;2.13;;;14.20;53.70;;;;;;10271135;28;20250;-85
2022/04/05 07:55:28;;;;;;;4.60;1.83;;;13.60;55.40;;;;;;10259342;28;20273;-85
2022/04/05 08:00:31;;;;;;;12.17;2.33;;;13.80;55.70;;;;;;10271114;28;20281;-85
2022/04/05 08:05:34;;;;;;;4.80;2.03;;;14.70;54.10;;;;;;10259455;28;20279;-86
2022/04/05 08:10:36;;;;;;;5.07;1.53;;;14.90;53.10;;;;;;10244045;29;20265;-85
2022/04/05 08:15:43;;;;;;;7.40;1.87;;;15.20;53.20;;;;;;10277662;28;20222;-85
2022/04/05 08:20:45;;;;;;;5.27;1.67;;;15.00;52.10;;;;;;10246619;28;20266;-85
2022/04/05 08:25:48;;;;;;;6.63;1.97;;;15.70;52.40;;;;;;10253577;28;20231;-85
2022/04/05 08:30:51;;;;;;;2.17;1.33;;;15.50;52.70;;;;;;10280830;28;20232;-86
2022/04/05 08:35:55;;;;;;;6.27;2.57;;;15.90;52.00;;;;;;10276790;28;20273;-86
2022/04/05 08:41:05;;;;;;;5.43;1.23;;;14.30;52.50;;;;;;10289113;28;20241;-86
2022/04/05 08:46:07;;;;;;;3.23;1.43;;;15.00;53.30;;;;;;10250856;28;20282;-85
2022/04/05 08:51:10;;;;;;;2.63;1.77;;;16.40;51.70;;;;;;10257710;28;20651;-86
2022/04/05 08:56:14;;;;;;;3.93;1.43;;;16.70;51.10;;;;;;10273057;28;20230;-86
2022/04/05 09:01:16;;;;;;;3.20;1.57;;;15.50;51.90;;;;;;10252939;28;20628;-86
2022/04/05 09:06:31;;;;;;;2.63;1.00;;;14.30;54.90;;;;;;10289580;28;20272;-86
2022/04/05 09:11:34;;;;;;;2.90;1.20;;;15.80;52.30;;;;;;10285909;28;20226;-86
2022/04/05 09:16:37;;;;;;;2.20;0.90;;;15.70;52.90;;;;;;10250888;28;20684;-86
2022/04/05 09:21:57;;;;;;;3.60;1.37;;;16.30;52.10;;;;;;10273849;28;20836;-86
2022/04/05 09:27:00;;;;;;;2.87;1.77;;;16.70;50.20;;;;;;10268667;28;20273;-86
2022/04/05 09:32:03;;;;;;;2.03;1.03;;;15.90;49.60;;;;;;10265458;28;20278;-86
2022/04/05 09:37:09;;;;;;;3.47;1.17;;;16.40;51.40;;;;;;10278370;28;20296;-86
2022/04/05 09:42:11;;;;;;;4.20;1.47;;;16.40;50.90;;;;;;10290415;28;20237;-86
2022/04/05 09:47:17;;;;;;;4.23;1.50;;;15.80;52.20;;;;;;10288416;28;20261;-86
2022/04/05 09:52:34;;;;;;;4.37;1.63;;;15.90;49.40;;;;;;10290908;28;20584;-86
2022/04/05 09:57:37;;;;;;;7.00;2.37;;;15.70;51.40;;;;;;10290367;28;20316;-86
2022/04/05 10:03:03;;;;;;;11.07;3.87;;;14.30;49.40;;;;;;10289579;28;20753;-86
2022/04/05 10:08:06;;;;;;;5.77;2.00;;;13.70;53.60;;;;;;10289155;28;20300;-86
2022/04/05 10:13:09;;;;;;;1.73;1.10;;;15.40;48.40;;;;;;10287797;28;20206;-86
2022/04/05 10:18:11;;;;;;;2.33;1.30;;;15.40;51.20;;;;;;10250221;28;20625;-86
2022/04/05 10:23:18;;;;;;;2.43;1.27;;;15.80;51.70;;;;;;10248437;29;20265;-85
2022/04/05 10:28:26;;;;;;;7.40;2.13;;;15.70;51.60;;;;;;10267733;28;20313;-86
2022/04/05 10:33:54;;;;;;;5.53;1.70;;;14.30;50.80;;;;;;10276886;28;20571;-86
2022/04/05 10:39:18;;;;;;;5.80;1.63;;;14.90;52.60;;;;;;10243908;28;20296;-86
2022/04/05 10:44:22;;;;;;;4.97;3.30;;;15.10;52.10;;;;;;10262538;28;20237;-86
2022/04/05 10:49:39;;;;;;;3.53;1.53;;;11.60;53.20;;;;;;10254561;28;20624;-86
2022/04/05 10:54:47;;;;;;;2.53;1.10;;;12.20;57.50;;;;;;10285508;28;20236;-86
2022/04/05 10:59:53;;;;;;;1.00;0.90;;;14.40;55.30;;;;;;10276081;28;20313;-85
2022/04/05 11:05:02;;;;;;;0.97;0.80;;;15.90;51.60;;;;;;10247261;29;20619;-86
2022/04/05 11:10:05;;;;;;;2.80;1.60;;;16.20;51.00;;;;;;10247039;29;20253;-85
2022/04/05 11:15:12;;;;;;;3.23;1.33;;;16.30;50.20;;;;;;10257210;28;20245;-86
2022/04/05 11:20:15;;;;;;;1.87;0.93;;;15.90;50.60;;;;;;10258002;28;20234;-86
2022/04/05 11:25:27;;;;;;;2.40;1.77;;;16.20;50.40;;;;;;10247308;29;20241;-86
2022/04/05 11:30:37;;;;;;;6.40;1.77;;;16.20;49.90;;;;;;10261417;28;20253;-86
2022/04/05 11:35:50;;;;;;;2.40;1.10;;;15.30;51.10;;;;;;10261217;28;20296;-86
2022/04/05 11:41:17;;;;;;;3.43;1.10;;;15.20;51.20;;;;;;10247951;28;20226;-85
2022/04/05 11:46:51;;;;;;;3.73;1.13;;;15.90;49.60;;;;;;10267938;28;20233;-86
2022/04/05 11:51:54;;;;;;;2.03;0.83;;;16.00;49.70;;;;;;10048353;29;20240;-86
2022/04/05 11:57:04;;;;;;;1.40;0.90;;;16.20;49.30;;;;;;10033598;29;20276;-86
2022/04/05 12:02:06;;;;;;;2.87;1.03;;;16.00;49.80;;;;;;10039388;29;20242;-86
2022/04/05 12:07:09;;;;;;;3.27;1.10;;;16.10;49.30;;;;;;10039967;29;20258;-86
2022/04/05 12:12:12;;;;;;;3.07;1.10;;;15.40;50.10;;;;;;10016310;29;20307;-86
2022/04/05 12:17:15;;;;;;;6.63;1.20;;;14.40;50.40;;;;;;10028182;29;20237;-86
2022/04/05 12:22:19;;;;;;;1.77;1.13;;;15.60;50.40;;;;;;10019486;29;20692;-86
2022/04/05 12:27:24;;;;;;;4.80;1.57;;;15.80;49.60;;;;;;10127106;29;20262;-86
2022/04/05 12:32:37;;;;;;;3.13;1.40;;;15.90;49.10;;;;;;10248305;28;20276;-85
2022/04/05 12:37:40;;;;;;;2.13;1.30;;;15.80;48.20;;;;;;10269460;28;20243;-86
2022/04/05 12:42:43;;;;;;;3.67;1.73;;;15.80;49.00;;;;;;10261712;28;20242;-87
2022/04/05 12:47:48;;;;;;;8.20;2.17;;;15.00;49.00;;;;;;10278875;28;20312;-89
2022/04/05 12:53:01;;;;;;;2.43;1.27;;;13.60;46.10;;;;;;10292380;28;20260;-88
2022/04/05 12:58:04;;;;;;;3.47;1.43;;;14.60;45.30;;;;;;10275821;28;20599;-88
2022/04/05 13:03:09;;;;;;;2.60;1.40;;;14.90;44.40;;;;;;10292415;28;20257;-89
2022/04/05 13:08:38;;;;;;;3.07;1.50;;;15.10;44.40;;;;;;10293169;28;20257;-88
2022/04/05 13:13:41;;;;;;;2.87;1.40;;;14.90;44.20;;;;;;10291827;28;20672;-89
2022/04/05 13:18:46;;;;;;;4.60;1.50;;;14.70;45.10;;;;;;10291700;28;20296;-88
2022/04/05 13:24:00;;;;;;;1.67;1.10;;;14.60;45.40;;;;;;10292713;28;20264;-88
2022/04/05 13:29:10;;;;;;;5.87;1.47;;;14.90;45.80;;;;;;10291190;28;20687;-88
2022/04/05 13:34:14;;;;;;;8.13;2.07;;;14.60;45.90;;;;;;10240518;28;20255;-87
2022/04/05 13:39:17;;;;;;;2.50;1.30;;;15.00;45.80;;;;;;10194742;29;20211;-88
2022/04/05 13:44:20;;;;;;;2.77;1.73;;;15.10;43.90;;;;;;10281398;28;20210;-89
2022/04/05 13:49:23;;;;;;;4.83;1.27;;;11.90;52.00;;;;;;10257967;28;20332;-89
2022/04/05 13:54:26;;;;;;;8.77;2.73;;;15.30;46.60;;;;;;10289052;28;20302;-88
2022/04/05 13:59:29;;;;;;;2.97;1.07;;;15.40;47.10;;;;;;10253692;28;20222;-88
2022/04/05 14:04:31;;;;;;;3.77;1.30;;;16.80;45.00;;;;;;10255015;29;20288;-87
2022/04/05 14:09:34;;;;;;;3.20;1.13;;;;;;;;;;10280327;28;20265;-87
2022/04/05 14:14:37;;;;;;;3.30;1.30;;;17.00;44.60;;;;;;10292908;28;20198;-87
2022/04/05 14:19:40;;;;;;;3.13;1.10;;;17.40;44.10;;;;;;10274287;28;20609;-88
2022/04/05 14:24:42;;;;;;;3.10;1.20;;;16.50;44.90;;;;;;10265717;28;20210;-87
2022/04/05 14:29:45;;;;;;;2.40;0.93;;;17.70;44.00;;;;;;10252580;29;20266;-88
2022/04/05 14:34:48;;;;;;;3.43;0.90;;;16.80;42.70;;;;;;10270706;28;20655;-88
2022/04/05 14:39:50;;;;;;;3.63;2.03;;;17.40;43.60;;;;;;10291746;28;20243;-88
2022/04/05 14:44:52;;;;;;;2.57;1.10;;;16.90;41.80;;;;;;10291146;28;20272;-88
2022/04/05 14:50:15;;;;;;;2.17;1.10;;;17.30;44.90;;;;;;10278706;28;20244;-88
2022/04/05 14:55:37;;;;;;;2.80;0.90;;;17.40;44.80;;;;;;10291683;28;20698;-88
2022/04/05 15:00:40;;;;;;;2.77;1.20;;;17.50;44.90;;;;;;10280136;28;20233;-88
2022/04/05 15:05:44;;;;;;;3.23;1.17;;;17.50;45.00;;;;;;10237049;28;20681;-88
2022/04/05 15:10:46;;;;;;;2.17;1.10;;;17.50;44.60;;;;;;10246063;28;20269;-90
2022/04/05 15:15:49;;;;;;;5.17;1.80;;;17.20;43.10;;;;;;10249305;28;20238;-88
2022/04/05 15:20:56;;;;;;;4.97;1.67;;;14.80;43.80;;;;;;10248628;28;20231;-86
2022/04/05 15:26:00;;;;;;;3.73;1.60;;;16.30;42.90;;;;;;10243366;28;20247;-87
2022/04/05 15:31:03;;;;;;;3.40;1.97;;;16.90;42.20;;;;;;10241474;28;20309;-89
2022/04/05 15:36:07;;;;;;;2.30;1.10;;;17.00;42.30;;;;;;10254505;28;20284;-89
2022/04/05 15:41:10;;;;;;;4.27;1.87;;;17.20;42.60;;;;;;10241196;28;20302;-89
2022/04/05 15:46:12;;;;;;;2.50;1.40;;;17.00;43.00;;;;;;10245399;28;20292;-89
2022/04/05 15:51:15;;;;;;;4.10;1.57;;;17.30;43.00;;;;;;10228887;29;20289;-89
2022/04/05 15:56:18;;;;;;;2.47;1.23;;;17.30;43.00;;;;;;10244281;29;20242;-89
2022/04/05 16:01:21;;;;;;;3.53;1.30;;;17.20;43.20;;;;;;10259975;28;20331;-89
2022/04/05 16:06:23;;;;;;;2.17;1.20;;;17.30;43.30;;;;;;10294494;28;20234;-89
2022/04/05 16:11:26;;;;;;;2.63;1.63;;;17.30;43.60;;;;;;9565309;28;10000706;-89
2022/04/05 16:16:28;;;;;;;3.70;1.60;;;17.30;43.70;;;;;;10230950;28;20246;-89
2022/04/05 16:21:31;;;;;;;4.50;1.23;;;17.00;44.10;;;;;;10254273;28;20205;-89
2022/04/05 16:26:34;;;;;;;2.43;1.40;;;17.30;44.00;;;;;;10263439;28;20346;-89
2022/04/05 16:31:36;;;;;;;2.77;1.83;;;17.30;44.00;;;;;;10242625;28;20268;-88
2022/04/05 16:36:39;;;;;;;1.73;1.00;;;17.20;44.10;;;;;;10248610;28;20286;-86
2022/04/05 16:41:42;;;;;;;1.70;1.00;;;17.20;44.40;;;;;;10286025;28;20678;-87
2022/04/05 16:46:45;;;;;;;2.70;1.17;;;17.20;44.60;;;;;;10263629;28;20244;-87
2022/04/05 16:51:48;;;;;;;2.90;1.10;;;17.00;44.90;;;;;;10209156;28;20273;-87
2022/04/05 16:56:51;;;;;;;1.13;1.00;;;17.00;44.90;;;;;;10238172;28;20242;-86
2022/04/05 17:01:53;;;;;;;2.43;1.03;;;17.00;45.10;;;;;;10229035;28;20669;-87
2022/04/05 17:06:56;;;;;;;1.17;0.93;;;16.90;45.30;;;;;;10236804;28;20246;-86
2022/04/05 17:11:59;;;;;;;2.40;1.40;;;16.90;45.40;;;;;;10252211;28;20718;-87
2022/04/05 17:17:02;;;;;;;4.10;1.27;;;16.90;45.60;;;;;;10242034;28;20608;-86
2022/04/05 17:22:08;;;;;;;1.47;0.90;;;16.70;46.00;;;;;;10246840;28;20851;-86
2022/04/05 17:27:10;;;;;;;2.90;1.47;;;16.70;46.10;;;;;;10249562;28;20247;-86
2022/04/05 17:32:13;;;;;;;3.43;1.77;;;16.70;46.40;;;;;;10242709;28;20313;-87
2022/04/05 17:37:16;;;;;;;1.93;1.50;;;16.60;46.50;;;;;;10223269;28;20230;-87
2022/04/05 17:42:18;;;;;;;2.73;1.23;;;16.60;46.70;;;;;;10245309;29;20244;-86
2022/04/05 17:47:21;;;;;;;2.60;1.23;;;16.50;46.80;;;;;;10245865;28;20287;-86
2022/04/05 17:52:23;;;;;;;3.17;1.50;;;16.50;47.00;;;;;;10247874;29;20269;-86
2022/04/05 17:57:41;;;;;;;1.77;1.10;;;16.50;47.20;;;;;;10236424;28;20309;-86
2022/04/05 18:02:44;;;;;;;3.27;1.40;;;16.40;47.50;;;;;;10244487;28;20235;-86
2022/04/05 18:07:49;;;;;;;2.03;1.20;;;16.20;47.70;;;;;;10247867;29;21065;-86
2022/04/05 18:12:58;;;;;;;2.53;1.60;;;15.90;48.40;;;;;;10273106;28;20661;-86
2022/04/05 18:18:01;;;;;;;2.90;1.70;;;15.80;48.60;;;;;;10245884;29;20794;-87
2022/04/05 18:23:04;;;;;;;6.07;1.50;;;15.80;48.90;;;;;;10248526;28;20261;-87
2022/04/05 18:28:06;;;;;;;11.03;4.77;;;15.50;49.30;;;;;;10247129;28;20701;-87
2022/04/05 18:33:09;;;;;;;13.00;5.87;;;15.20;51.10;;;;;;10231772;28;20780;-88
2022/04/05 18:38:12;;;;;;;5.00;3.00;;;14.90;51.10;;;;;;10246838;28;20269;-87
2022/04/05 18:43:18;;;;;;;4.87;2.37;;;14.20;53.00;;;;;;10247945;29;20291;-87
2022/04/05 18:48:21;;;;;;;9.10;4.77;;;14.60;51.80;;;;;;10261118;28;20680;-86
2022/04/05 18:53:32;;;;;;;18.30;10.60;;;14.00;53.10;;;;;;10261938;28;20205;-87
2022/04/05 18:58:35;;;;;;;18.77;10.47;;;12.80;57.40;;;;;;10268332;28;20274;-86
2022/04/05 19:03:38;;;;;;;27.63;14.03;;;11.80;60.40;;;;;;10244382;29;20237;-87
2022/04/05 19:08:42;;;;;;;12.80;6.70;;;11.90;60.80;;;;;;10259853;28;20658;-87
2022/04/05 19:13:44;;;;;;;2.53;1.53;;;13.10;57.90;;;;;;10245784;28;20261;-87
2022/04/05 19:18:47;;;;;;;3.57;2.17;;;14.00;54.10;;;;;;10245185;28;20644;-87
2022/04/05 19:23:49;;;;;;;14.67;6.13;;;14.60;52.50;;;;;;10247134;28;20305;-87
2022/04/05 19:28:52;;;;;;;4.57;2.03;;;15.00;53.60;;;;;;10258845;28;20855;-87
2022/04/05 19:33:54;;;;;;;2.47;1.73;;;15.00;51.90;;;;;;10276447;28;20283;-87
2022/04/05 19:38:56;;;;;;;3.43;1.87;;;15.20;51.60;;;;;;10253929;28;20257;-87
2022/04/05 19:43:59;;;;;;;4.60;2.73;;;15.20;51.40;;;;;;10246395;28;20293;-87
2022/04/05 19:49:02;;;;;;;4.60;2.80;;;15.30;51.30;;;;;;10248981;28;20332;-87
2022/04/05 19:54:05;;;;;;;4.87;2.23;;;15.20;51.40;;;;;;10283768;28;20307;-87
2022/04/05 19:59:07;;;;;;;5.97;2.33;;;15.20;51.40;;;;;;10277932;28;20267;-87
2022/04/05 20:04:10;;;;;;;4.63;2.70;;;15.30;51.40;;;;;;10264601;28;20229;-87
2022/04/05 20:09:12;;;;;;;5.43;2.40;;;15.00;52.50;;;;;;10230516;28;20258;-87
2022/04/05 20:14:15;;;;;;;5.87;3.93;;;15.30;51.90;;;;;;10246841;28;20250;-87
2022/04/05 20:19:20;;;;;;;4.27;2.33;;;15.00;53.90;;;;;;10249268;28;20292;-87
2022/04/05 20:24:22;;;;;;;4.50;1.97;;;15.40;52.30;;;;;;10215049;28;20234;-89
2022/04/05 20:29:26;;;;;;;3.20;2.30;;;15.60;52.00;;;;;;10254939;28;20253;-89
2022/04/05 20:34:28;;;;;;;9.30;4.57;;;15.70;51.90;;;;;;10284008;28;20378;-87
2022/04/05 20:39:31;;;;;;;6.00;3.17;;;15.70;54.50;;;;;;10276240;28;20289;-88
2022/04/05 20:44:33;;;;;;;4.77;2.30;;;15.60;52.80;;;;;;10277955;28;20245;-87
2022/04/05 20:49:36;;;;;;;2.77;2.00;;;15.70;52.00;;;;;;10276441;28;20313;-87
2022/04/05 20:54:39;;;;;;;5.67;2.83;;;15.90;51.80;;;;;;10249995;28;20331;-87
2022/04/05 20:59:41;;;;;;;3.63;2.23;;;15.80;52.20;;;;;;10283988;28;20348;-87
2022/04/05 21:04:44;;;;;;;7.40;4.47;;;15.70;52.30;;;;;;10294303;28;20357;-88
2022/04/05 21:09:46;;;;;;;4.37;2.93;;;15.50;53.30;;;;;;10262250;28;20303;-88
2022/04/05 21:14:49;;;;;;;3.57;2.53;;;15.70;52.50;;;;;;10268015;28;20293;-88
2022/04/05 21:19:53;;;;;;;5.03;3.33;;;15.70;52.70;;;;;;10251432;28;20324;-89
2022/04/05 21:24:57;;;;;;;5.30;2.63;;;15.60;52.80;;;;;;10250453;28;20257;-88
2022/04/05 21:29:59;;;;;;;6.40;4.33;;;15.60;52.80;;;;;;10232982;28;20258;-88
2022/04/05 21:35:02;;;;;;;6.63;4.37;;;11.10;71.80;;;;;;10260438;28;20234;-90
2022/04/05 21:40:07;;;;;;;5.47;3.13;;;14.40;60.80;;;;;;10263893;28;20257;-89
2022/04/05 21:45:09;;;;;;;5.03;2.30;;;15.40;57.40;;;;;;10277908;28;20233;-88
2022/04/05 21:50:12;;;;;;;4.27;2.30;;;15.50;56.50;;;;;;10268643;28;20654;-88
2022/04/05 21:55:14;;;;;;;6.73;3.27;;;15.50;56.60;;;;;;10271518;28;20241;-88
2022/04/05 22:00:17;;;;;;;6.20;3.50;;;15.50;56.50;;;;;;10251778;28;20265;-88
2022/04/05 22:05:20;;;;;;;4.43;2.93;;;15.50;56.20;;;;;;10252868;28;20277;-88
2022/04/05 22:10:22;;;;;;;6.10;3.43;;;15.60;56.00;;;;;;10264174;28;20628;-88
2022/04/05 22:15:25;;;;;;;4.57;3.13;;;15.60;55.90;;;;;;10249710;28;20211;-89
2022/04/05 22:20:32;;;;;;;6.97;4.03;;;15.30;56.50;;;;;;10246044;28;20252;-89
2022/04/05 22:25:34;;;;;;;5.53;3.23;;;15.50;58.10;;;;;;10254847;28;20238;-89
2022/04/05 22:30:37;;;;;;;3.90;2.73;;;15.50;56.00;;;;;;10298466;28;20320;-88
2022/04/05 22:35:39;;;;;;;6.10;3.47;;;15.60;55.90;;;;;;10272392;28;20217;-88
2022/04/05 22:40:42;;;;;;;9.00;4.00;;;15.60;55.90;;;;;;10252359;28;20941;-88
2022/04/05 22:45:44;;;;;;;5.97;2.97;;;15.40;56.30;;;;;;10271827;28;20234;-88
2022/04/05 22:50:47;;;;;;;4.53;3.20;;;15.50;56.20;;;;;;10287472;28;20303;-88
2022/04/05 22:55:50;;;;;;;4.23;2.70;;;15.60;56.00;;;;;;10279348;28;20260;-88
2022/04/05 23:00:52;;;;;;;5.17;2.20;;;15.50;56.10;;;;;;10260928;28;20265;-88
2022/04/05 23:05:55;;;;;;;4.40;3.37;;;15.70;55.90;;;;;;10276503;28;20614;-89
2022/04/05 23:10:57;;;;;;;4.00;3.00;;;15.50;56.30;;;;;;10274791;28;20272;-88
2022/04/05 23:16:00;;;;;;;6.53;3.10;;;15.50;56.30;;;;;;10287301;28;20233;-88
2022/04/05 23:21:02;;;;;;;4.83;2.70;;;15.50;56.30;;;;;;10271280;28;20623;-88
2022/04/05 23:26:06;;;;;;;4.53;2.60;;;15.40;56.50;;;;;;10265962;28;20262;-89
2022/04/05 23:31:09;;;;;;;4.63;2.87;;;15.40;56.60;;;;;;10255856;28;20257;-89
2022/04/05 23:36:11;;;;;;;5.83;2.70;;;15.40;56.60;;;;;;10280371;28;20234;-88
2022/04/05 23:41:14;;;;;;;15.20;7.73;;;15.40;56.70;;;;;;10262173;28;20238;-88
2022/04/05 23:46:16;;;;;;;11.90;7.57;;;14.30;67.00;;;;;;10255702;28;20746;-88
2022/04/05 23:51:19;;;;;;;12.23;8.73;;;10.50;79.80;;;;;;10277141;28;20689;-89
2022/04/05 23:56:21;;;;;;;8.53;4.57;;;9.00;90.80;;;;;;10282377;28;20233;-89
